createdAt,value
2023-05-08T00:01:51.970Z,21.92
2023-05-08T00:04:20.375Z,21.91
2023-05-08T00:06:46.990Z,21.91
2023-05-08T00:09:13.410Z,21.90
2023-05-08T00:11:39.726Z,21.90
2023-05-08T00:14:06.187Z,21.90
2023-05-08T00:16:32.674Z,21.87
2023-05-08T00:18:59.749Z,21.88
2023-05-08T00:21:26.131Z,21.88
2023-05-08T00:23:52.464Z,21.87
2023-05-08T00:26:18.935Z,21.88
2023-05-08T00:28:45.264Z,21.87
2023-05-08T00:31:11.933Z,21.86
2023-05-08T00:33:38.260Z,21.85
2023-05-08T00:36:04.802Z,21.86
2023-05-08T00:38:31.546Z,21.84
2023-05-08T00:40:58.190Z,21.83
2023-05-08T00:43:27.945Z,21.83
2023-05-08T00:45:54.788Z,21.80
2023-05-08T00:48:21.280Z,21.80
2023-05-08T00:50:47.606Z,21.79
2023-05-08T00:53:13.927Z,21.78
2023-05-08T00:55:40.247Z,21.77
2023-05-08T00:58:06.553Z,21.77
2023-05-08T01:00:32.873Z,21.76
2023-05-08T01:03:00.127Z,21.76
2023-05-08T01:05:29.328Z,21.76
2023-05-08T01:07:55.650Z,21.76
2023-05-08T01:10:21.964Z,21.75
2023-05-08T01:12:54.326Z,21.74
2023-05-08T01:15:22.709Z,21.72
2023-05-08T01:18:07.830Z,21.72
2023-05-08T01:20:37.091Z,21.71
2023-05-08T01:23:09.358Z,21.71
2023-05-08T01:25:38.912Z,21.72
2023-05-08T01:28:14.420Z,21.71
2023-05-08T01:30:59.638Z,21.71
2023-05-08T01:33:44.691Z,21.70
2023-05-08T01:36:17.288Z,21.70
2023-05-08T01:38:48.160Z,21.69
2023-05-08T01:41:16.295Z,21.68
2023-05-08T01:43:50.539Z,21.68
2023-05-08T01:46:18.586Z,21.67
2023-05-08T01:48:49.937Z,21.66
2023-05-08T01:51:20.699Z,21.65
2023-05-08T01:53:51.576Z,21.64
2023-05-08T01:56:19.056Z,21.65
2023-05-08T01:58:45.406Z,21.64
2023-05-08T02:01:12.672Z,21.62
2023-05-08T02:03:39.781Z,21.63
2023-05-08T02:06:07.062Z,21.63
2023-05-08T02:08:33.396Z,21.64
2023-05-08T02:10:59.817Z,21.63
2023-05-08T02:13:26.186Z,21.66
2023-05-08T02:15:53.286Z,21.66
2023-05-08T02:18:20.653Z,21.67
2023-05-08T02:20:47.755Z,21.67
2023-05-08T02:23:14.063Z,21.68
2023-05-08T02:25:40.384Z,21.71
2023-05-08T02:28:06.726Z,21.70
2023-05-08T02:30:33.064Z,21.68
2023-05-08T02:33:00.830Z,21.69
2023-05-08T02:35:27.331Z,21.69
2023-05-08T02:37:53.910Z,21.69
2023-05-08T02:40:20.697Z,21.68
2023-05-08T02:42:47.110Z,21.69
2023-05-08T02:45:13.441Z,21.66
2023-05-08T02:47:51.738Z,21.69
2023-05-08T02:50:19.251Z,21.72
2023-05-08T02:52:46.356Z,21.77
2023-05-08T02:55:18.670Z,21.81
2023-05-08T02:57:49.004Z,21.81
2023-05-08T03:00:16.337Z,21.82
2023-05-08T03:02:43.918Z,21.80
2023-05-08T03:05:15.262Z,21.80
2023-05-08T03:07:41.843Z,21.79
2023-05-08T03:10:10.633Z,21.78
2023-05-08T03:12:39.437Z,21.77
2023-05-08T03:15:07.745Z,21.74
2023-05-08T03:17:34.088Z,21.75
2023-05-08T03:20:02.003Z,21.73
2023-05-08T03:22:28.650Z,21.73
2023-05-08T03:24:55.012Z,21.73
2023-05-08T03:27:21.438Z,21.71
2023-05-08T03:29:47.809Z,21.69
2023-05-08T03:32:14.132Z,21.68
2023-05-08T03:34:40.570Z,21.69
2023-05-08T03:37:06.880Z,21.67
2023-05-08T03:39:33.229Z,21.68
2023-05-08T03:41:59.535Z,21.67
2023-05-08T03:44:25.915Z,21.65
2023-05-08T03:46:52.757Z,21.63
2023-05-08T03:49:19.270Z,21.63
2023-05-08T03:51:45.612Z,21.64
2023-05-08T03:54:11.930Z,21.65
2023-05-08T03:56:38.256Z,21.65
2023-05-08T03:59:08.973Z,21.67
2023-05-08T04:01:41.881Z,21.64
2023-05-08T04:04:29.967Z,21.66
2023-05-08T04:07:22.737Z,21.67
2023-05-08T04:09:59.727Z,21.68
2023-05-08T04:12:32.302Z,21.72
2023-05-08T04:15:01.503Z,21.74
2023-05-08T04:17:44.200Z,21.79
2023-05-08T04:20:12.235Z,21.80
2023-05-08T04:22:38.643Z,21.81
2023-05-08T04:25:05.483Z,21.80
2023-05-08T04:27:31.819Z,21.81
2023-05-08T04:29:58.164Z,21.80
2023-05-08T04:32:24.574Z,21.81
2023-05-08T04:34:50.902Z,21.78
2023-05-08T04:37:26.787Z,21.78
2023-05-08T04:39:53.215Z,21.78
2023-05-08T04:42:19.682Z,21.76
2023-05-08T04:44:47.444Z,21.78
2023-05-08T04:47:14.117Z,21.79
2023-05-08T04:49:40.646Z,21.79
2023-05-08T04:52:07.706Z,21.80
2023-05-08T04:54:34.151Z,21.81
2023-05-08T04:57:00.703Z,21.79
2023-05-08T04:59:27.037Z,21.81
2023-05-08T05:01:53.506Z,21.80
2023-05-08T05:04:19.876Z,21.81
2023-05-08T05:06:46.202Z,21.81
2023-05-08T05:09:12.537Z,21.81
2023-05-08T05:11:38.856Z,21.80
2023-05-08T05:14:06.233Z,21.78
2023-05-08T05:16:32.722Z,21.77
2023-05-08T05:18:59.192Z,21.77
2023-05-08T05:21:26.011Z,21.76
2023-05-08T05:23:52.327Z,21.75
2023-05-08T05:26:18.711Z,21.76
2023-05-08T05:28:45.029Z,21.75
2023-05-08T05:31:11.447Z,21.76
2023-05-08T05:33:37.889Z,21.75
2023-05-08T05:36:04.232Z,21.77
2023-05-08T05:38:30.549Z,21.83
2023-05-08T05:40:57.183Z,21.85
2023-05-08T05:43:23.496Z,21.88
2023-05-08T05:45:49.815Z,21.95
2023-05-08T05:48:16.480Z,21.97
2023-05-08T05:50:43.020Z,21.97
2023-05-08T05:53:09.902Z,21.98
2023-05-08T05:55:36.225Z,21.99
2023-05-08T05:58:02.597Z,21.97
2023-05-08T06:00:30.562Z,21.95
2023-05-08T06:02:57.572Z,21.92
2023-05-08T06:05:24.060Z,22.03
2023-05-08T06:07:50.479Z,22.07
2023-05-08T06:10:16.800Z,22.10
2023-05-08T06:12:43.137Z,22.10
2023-05-08T06:15:09.924Z,22.06
2023-05-08T06:17:36.404Z,22.03
2023-05-08T06:20:03.083Z,22.10
2023-05-08T06:22:30.019Z,22.16
2023-05-08T06:24:57.275Z,22.20
2023-05-08T06:27:23.723Z,22.23
2023-05-08T06:29:52.860Z,22.29
2023-05-08T06:32:19.507Z,22.33
2023-05-08T06:34:45.947Z,22.38
2023-05-08T06:37:12.329Z,22.46
2023-05-08T06:39:38.691Z,22.49
2023-05-08T06:42:08.161Z,22.62
2023-05-08T06:44:35.064Z,22.68
2023-05-08T06:47:01.584Z,22.73
2023-05-08T06:49:27.928Z,22.78
2023-05-08T06:51:55.920Z,22.78
2023-05-08T06:54:24.188Z,22.81
2023-05-08T06:56:50.579Z,22.77
2023-05-08T06:59:17.064Z,22.90
2023-05-08T07:01:43.538Z,22.93
2023-05-08T07:04:10.149Z,23.00
2023-05-08T07:06:36.558Z,23.06
2023-05-08T07:09:02.936Z,23.12
2023-05-08T07:11:29.271Z,23.15
2023-05-08T07:13:55.822Z,23.21
2023-05-08T07:16:22.236Z,23.24
2023-05-08T07:18:48.650Z,23.23
2023-05-08T07:21:15.968Z,23.29
2023-05-08T07:26:08.530Z,23.29
2023-05-08T07:28:34.868Z,23.33
2023-05-08T07:31:03.962Z,23.32
2023-05-08T07:33:30.328Z,23.35
2023-05-08T07:35:56.642Z,23.36
2023-05-08T07:38:22.971Z,23.38
2023-05-08T07:40:51.465Z,23.42
2023-05-08T07:43:17.785Z,23.45
2023-05-08T07:45:44.095Z,23.41
2023-05-08T07:48:11.752Z,23.20
2023-05-08T07:50:38.215Z,23.19
2023-05-08T07:53:04.569Z,23.18
2023-05-08T07:55:30.974Z,23.25
2023-05-08T07:57:57.480Z,23.30
2023-05-08T08:00:23.967Z,23.24
2023-05-08T08:02:50.492Z,23.15
2023-05-08T08:05:17.138Z,23.06
2023-05-08T08:07:43.632Z,23.03
2023-05-08T08:10:09.968Z,23.02
2023-05-08T08:12:36.306Z,23.06
2023-05-08T08:15:02.652Z,23.07
2023-05-08T08:17:29.246Z,23.12
2023-05-08T08:19:55.780Z,23.19
2023-05-08T08:22:22.104Z,23.16
2023-05-08T08:24:48.443Z,23.19
2023-05-08T08:27:14.801Z,23.19
2023-05-08T08:29:41.184Z,23.09
2023-05-08T08:32:07.576Z,23.15
2023-05-08T08:34:33.893Z,23.19
2023-05-08T08:37:00.232Z,23.23
2023-05-08T08:39:26.569Z,23.23
2023-05-08T08:41:52.966Z,23.22
2023-05-08T08:44:19.310Z,23.25
2023-05-08T08:46:49.741Z,23.25
2023-05-08T08:49:17.775Z,23.16
2023-05-08T08:51:50.845Z,23.19
2023-05-08T08:54:20.305Z,23.21
2023-05-08T08:56:46.865Z,23.20
2023-05-08T08:59:13.335Z,23.30
2023-05-08T09:01:39.847Z,23.29
2023-05-08T09:04:06.482Z,23.25
2023-05-08T09:06:35.903Z,23.29
2023-05-08T09:09:02.211Z,23.33
2023-05-08T09:11:30.329Z,23.32
2023-05-08T09:13:56.639Z,23.31
2023-05-08T09:16:23.562Z,23.39
2023-05-08T09:18:49.906Z,23.24
2023-05-08T09:21:16.391Z,23.20
2023-05-08T09:23:55.087Z,23.36
2023-05-08T09:26:32.525Z,23.32
2023-05-08T09:29:11.868Z,23.38
2023-05-08T09:31:41.437Z,23.44
2023-05-08T09:34:11.385Z,23.49
2023-05-08T09:36:39.944Z,23.49
2023-05-08T09:39:10.444Z,23.48
2023-05-08T09:41:36.857Z,23.59
2023-05-08T09:44:03.958Z,23.65
2023-05-08T09:46:30.359Z,23.67
2023-05-08T09:48:57.301Z,23.71
2023-05-08T09:51:23.867Z,23.61
2023-05-08T09:53:52.120Z,23.62
2023-05-08T09:56:30.452Z,23.64
2023-05-08T09:58:58.505Z,23.74
2023-05-08T10:01:28.737Z,23.74
2023-05-08T10:03:55.166Z,23.60
2023-05-08T10:06:21.605Z,23.61
2023-05-08T10:08:48.393Z,23.67
2023-05-08T10:11:16.373Z,23.73
2023-05-08T10:13:43.377Z,23.77
2023-05-08T10:16:14.470Z,23.81
2023-05-08T10:18:40.818Z,23.69
2023-05-08T10:21:07.951Z,23.68
2023-05-08T10:23:34.260Z,23.78
2023-05-08T10:26:03.493Z,23.78
2023-05-08T10:28:33.482Z,23.86
2023-05-08T10:31:00.385Z,23.82
2023-05-08T10:33:30.963Z,23.85
2023-05-08T10:35:58.049Z,23.85
2023-05-08T10:38:24.442Z,23.88
2023-05-08T10:40:52.910Z,23.88
2023-05-08T10:43:19.316Z,23.85
2023-05-08T10:45:45.662Z,23.81
2023-05-08T10:48:18.055Z,23.78
2023-05-08T10:50:48.232Z,23.86
2023-05-08T10:53:23.354Z,23.87
2023-05-08T10:55:50.380Z,23.79
2023-05-08T10:58:40.375Z,23.79
2023-05-08T11:01:07.942Z,23.86
2023-05-08T11:03:49.491Z,23.87
2023-05-08T11:06:16.188Z,23.92
2023-05-08T11:08:49.466Z,23.82
2023-05-08T11:11:15.743Z,23.84
2023-05-08T11:13:42.738Z,23.84
2023-05-08T11:16:12.322Z,23.86
2023-05-08T11:18:48.964Z,23.80
2023-05-08T11:21:16.781Z,23.80
2023-05-08T11:23:43.104Z,23.82
2023-05-08T11:26:13.071Z,23.83
2023-05-08T11:28:40.092Z,23.80
2023-05-08T11:31:07.152Z,23.78
2023-05-08T11:33:41.006Z,23.80
2023-05-08T11:36:07.255Z,23.83
2023-05-08T11:38:35.677Z,23.80
2023-05-08T11:41:12.101Z,23.85
2023-05-08T11:43:38.405Z,23.85
2023-05-08T11:46:04.660Z,23.83
2023-05-08T11:48:34.014Z,23.82
2023-05-08T11:51:00.431Z,23.83
2023-05-08T11:53:26.922Z,23.86
2023-05-08T11:55:53.320Z,23.86
2023-05-08T11:58:20.034Z,23.87
2023-05-08T12:00:46.758Z,23.86
2023-05-08T12:03:13.720Z,23.86
2023-05-08T12:05:40.649Z,23.87
2023-05-08T12:08:07.291Z,23.83
2023-05-08T12:10:39.021Z,23.81
2023-05-08T12:13:14.950Z,23.79
2023-05-08T12:15:41.306Z,23.82
2023-05-08T12:18:07.679Z,23.81
2023-05-08T12:20:34.053Z,23.77
2023-05-08T12:23:01.969Z,23.78
2023-05-08T12:25:28.294Z,23.79
2023-05-08T12:27:54.631Z,23.75
2023-05-08T12:30:20.992Z,23.78
2023-05-08T12:32:47.386Z,23.76
2023-05-08T12:35:13.870Z,23.78
2023-05-08T12:37:40.237Z,23.77
2023-05-08T12:40:06.821Z,23.79
2023-05-08T12:42:43.075Z,23.74
2023-05-08T12:45:09.468Z,23.76
2023-05-08T12:47:35.836Z,23.74
2023-05-08T12:50:02.235Z,23.68
2023-05-08T12:52:28.961Z,23.64
2023-05-08T12:54:55.374Z,23.71
2023-05-08T12:57:22.674Z,23.73
2023-05-08T12:59:49.049Z,23.69
2023-05-08T13:02:19.490Z,23.66
2023-05-08T13:04:46.013Z,23.66
2023-05-08T13:07:12.415Z,23.65
2023-05-08T13:09:39.025Z,23.64
2023-05-08T13:12:06.698Z,23.65
2023-05-08T13:14:33.039Z,23.64
2023-05-08T13:16:59.921Z,23.61
2023-05-08T13:19:27.502Z,23.58
2023-05-08T13:21:53.825Z,23.57
2023-05-08T13:24:20.156Z,23.56
2023-05-08T13:26:46.796Z,23.57
2023-05-08T13:29:13.228Z,23.57
2023-05-08T13:31:39.605Z,23.57
2023-05-08T13:34:05.989Z,23.57
2023-05-08T13:36:32.305Z,23.57
2023-05-08T13:38:58.622Z,23.55
2023-05-08T13:41:24.947Z,23.52
2023-05-08T13:43:51.269Z,23.51
2023-05-08T13:46:17.761Z,23.49
2023-05-08T13:48:44.181Z,23.50
2023-05-08T13:51:10.532Z,23.53
2023-05-08T13:53:36.855Z,23.52
2023-05-08T13:56:03.184Z,23.51
2023-05-08T13:58:29.493Z,23.47
2023-05-08T14:00:55.898Z,23.48
2023-05-08T14:03:22.400Z,23.49
2023-05-08T14:05:48.802Z,23.46
2023-05-08T14:08:15.111Z,23.41
2023-05-08T14:10:41.484Z,23.43
2023-05-08T14:13:08.310Z,23.43
2023-05-08T14:15:37.264Z,23.43
2023-05-08T14:18:03.899Z,23.41
2023-05-08T14:20:30.590Z,23.42
2023-05-08T14:23:00.031Z,23.44
2023-05-08T14:25:26.673Z,23.35
2023-05-08T14:27:53.019Z,23.33
2023-05-08T14:30:19.355Z,23.31
2023-05-08T14:32:45.785Z,23.21
2023-05-08T14:35:14.416Z,23.24
2023-05-08T14:37:41.439Z,23.24
2023-05-08T14:40:08.003Z,23.24
2023-05-08T14:42:34.372Z,23.21
2023-05-08T14:45:00.862Z,23.24
2023-05-08T14:47:27.381Z,23.26
2023-05-08T14:52:20.250Z,23.24
2023-05-08T14:54:52.876Z,23.21
2023-05-08T14:57:19.756Z,23.23
2023-05-08T15:02:16.897Z,23.19
2023-05-08T15:04:44.129Z,23.20
2023-05-08T15:07:10.512Z,23.19
2023-05-08T15:09:36.849Z,23.13
2023-05-08T15:12:03.299Z,23.09
2023-05-08T15:14:29.751Z,23.13
2023-05-08T15:16:56.096Z,23.13
2023-05-08T15:19:22.464Z,23.14
2023-05-08T15:21:48.772Z,23.10
2023-05-08T15:24:15.101Z,23.10
2023-05-08T15:26:41.408Z,23.10
2023-05-08T15:29:07.795Z,23.11
2023-05-08T15:31:34.204Z,23.10
2023-05-08T15:34:00.620Z,23.09
2023-05-08T15:36:28.566Z,23.07
2023-05-08T15:38:54.964Z,23.03
2023-05-08T15:41:21.760Z,22.98
2023-05-08T15:43:48.089Z,23.01
2023-05-08T15:46:14.485Z,23.04
2023-05-08T15:48:40.834Z,23.01
2023-05-08T15:51:07.182Z,23.01
2023-05-08T15:53:34.028Z,23.00
2023-05-08T15:56:00.345Z,23.02
2023-05-08T15:58:27.599Z,23.01
2023-05-08T16:00:54.124Z,22.95
2023-05-08T16:03:20.572Z,22.96
2023-05-08T16:05:47.016Z,22.91
2023-05-08T16:08:13.980Z,22.90
2023-05-08T16:10:40.819Z,22.89
2023-05-08T16:13:07.226Z,22.90
2023-05-08T16:15:33.622Z,22.92
2023-05-08T16:17:59.990Z,22.90
2023-05-08T16:20:26.360Z,22.89
2023-05-08T16:22:53.982Z,22.86
2023-05-08T16:25:20.365Z,22.86
2023-05-08T16:27:46.685Z,22.83
2023-05-08T16:30:13.145Z,22.82
2023-05-08T16:32:42.747Z,22.82
2023-05-08T16:35:09.258Z,22.81
2023-05-08T16:37:37.293Z,22.80
2023-05-08T16:40:04.014Z,22.74
2023-05-08T16:42:30.338Z,22.78
2023-05-08T16:44:56.653Z,22.79
2023-05-08T16:47:23.005Z,22.78
2023-05-08T16:49:49.326Z,22.79
2023-05-08T16:52:15.667Z,22.79
2023-05-08T16:54:42.006Z,22.79
2023-05-08T16:57:08.340Z,22.79
2023-05-08T16:59:34.658Z,22.77
2023-05-08T17:02:01.057Z,22.75
2023-05-08T17:04:28.850Z,22.75
2023-05-08T17:06:57.285Z,22.74
2023-05-08T17:09:25.251Z,22.75
2023-05-08T17:11:51.661Z,22.72
2023-05-08T17:14:18.485Z,22.70
2023-05-08T17:16:44.879Z,22.70
2023-05-08T17:19:11.237Z,22.65
2023-05-08T17:21:37.549Z,22.64
2023-05-08T17:24:03.957Z,22.65
2023-05-08T17:26:31.713Z,22.64
2023-05-08T17:28:58.026Z,22.65
2023-05-08T17:31:24.363Z,22.60
2023-05-08T17:33:50.830Z,22.60
2023-05-08T17:36:17.161Z,22.61
2023-05-08T17:38:45.923Z,22.62
2023-05-08T17:41:12.520Z,22.63
2023-05-08T17:43:39.421Z,22.59
2023-05-08T17:46:06.167Z,22.57
2023-05-08T17:48:32.689Z,22.56
2023-05-08T17:50:59.297Z,22.56
2023-05-08T17:53:25.708Z,22.54
2023-05-08T17:55:52.074Z,22.47
2023-05-08T17:58:18.414Z,22.45
2023-05-08T18:00:44.747Z,22.49
2023-05-08T18:03:12.123Z,22.50
2023-05-08T18:05:38.699Z,22.51
2023-05-08T18:08:05.071Z,22.50
2023-05-08T18:10:32.320Z,22.48
2023-05-08T18:12:58.683Z,22.49
2023-05-08T18:15:24.999Z,22.46
2023-05-08T18:17:53.451Z,22.49
2023-05-08T18:20:23.475Z,22.49
2023-05-08T18:22:50.178Z,22.43
2023-05-08T18:25:16.491Z,22.49
2023-05-08T18:27:43.392Z,22.51
2023-05-08T18:30:09.816Z,22.52
2023-05-08T18:32:36.735Z,22.53
2023-05-08T18:35:03.154Z,22.51
2023-05-08T18:37:29.498Z,22.54
2023-05-08T18:39:55.906Z,22.51
2023-05-08T18:42:22.249Z,22.51
2023-05-08T18:44:48.619Z,22.52
2023-05-08T18:47:14.993Z,22.50
2023-05-08T18:49:41.368Z,22.48
2023-05-08T18:52:07.722Z,22.49
2023-05-08T18:54:34.051Z,22.49
2023-05-08T18:57:00.363Z,22.49
2023-05-08T18:59:26.704Z,22.48
2023-05-08T19:01:53.060Z,22.47
2023-05-08T19:04:19.442Z,22.47
2023-05-08T19:06:45.898Z,22.45
2023-05-08T19:09:12.816Z,22.42
2023-05-08T19:11:39.138Z,22.44
2023-05-08T19:14:05.527Z,22.43
2023-05-08T19:16:32.181Z,22.42
2023-05-08T19:18:58.547Z,22.40
2023-05-08T19:21:24.955Z,22.41
2023-05-08T19:23:51.359Z,22.37
2023-05-08T19:26:18.560Z,22.41
2023-05-08T19:28:44.887Z,22.48
2023-05-08T19:31:11.267Z,22.50
2023-05-08T19:33:37.628Z,22.50
2023-05-08T19:36:03.953Z,22.48
2023-05-08T19:38:30.290Z,22.49
2023-05-08T19:40:57.939Z,22.50
2023-05-08T19:43:25.235Z,22.48
2023-05-08T19:45:51.596Z,22.50
2023-05-08T19:48:19.989Z,22.49
2023-05-08T19:50:46.452Z,22.48
2023-05-08T19:53:12.780Z,22.47
2023-05-08T19:55:39.194Z,22.49
2023-05-08T19:58:05.519Z,22.47
2023-05-08T20:00:31.901Z,22.47
2023-05-08T20:02:58.289Z,22.46
2023-05-08T20:05:24.644Z,22.46
2023-05-08T20:07:50.971Z,22.45
2023-05-08T20:10:17.295Z,22.46
2023-05-08T20:12:43.750Z,22.45
2023-05-08T20:15:10.442Z,22.44
2023-05-08T20:17:36.818Z,22.42
2023-05-08T20:20:03.462Z,22.43
2023-05-08T20:22:29.806Z,22.40
2023-05-08T20:24:56.183Z,22.38
2023-05-08T20:27:22.531Z,22.32
2023-05-08T20:29:48.847Z,22.34
2023-05-08T20:32:16.404Z,22.33
2023-05-08T20:34:44.393Z,22.35
2023-05-08T20:37:10.718Z,22.36
2023-05-08T20:39:37.036Z,22.38
2023-05-08T20:42:03.354Z,22.37
2023-05-08T20:44:29.734Z,22.37
2023-05-08T20:46:56.105Z,22.35
2023-05-08T20:49:22.425Z,22.34
2023-05-08T20:51:48.797Z,22.34
2023-05-08T20:54:15.265Z,22.33
2023-05-08T20:56:41.605Z,22.30
2023-05-08T20:59:08.267Z,22.29
2023-05-08T21:01:34.620Z,22.32
2023-05-08T21:04:00.966Z,22.32
2023-05-08T21:06:27.519Z,22.30
2023-05-08T21:08:53.925Z,22.26
2023-05-08T21:11:21.040Z,22.28
2023-05-08T21:13:47.392Z,22.28
2023-05-08T21:16:13.777Z,22.24
2023-05-08T21:18:40.173Z,22.28
2023-05-08T21:21:15.834Z,22.27
2023-05-08T21:23:42.148Z,22.26
2023-05-08T21:26:08.480Z,22.27
2023-05-08T21:28:34.957Z,22.22
2023-05-08T21:31:01.304Z,22.21
2023-05-08T21:33:27.663Z,22.17
2023-05-08T21:35:53.971Z,22.16
2023-05-08T21:38:20.364Z,22.17
2023-05-08T21:40:46.674Z,22.15
2023-05-08T21:43:13.093Z,22.14
2023-05-08T21:45:39.436Z,22.15
2023-05-08T21:48:05.901Z,22.16
2023-05-08T21:50:32.287Z,22.12
2023-05-08T21:52:58.653Z,22.10
2023-05-08T21:55:25.027Z,22.10
2023-05-08T21:57:51.348Z,22.06
2023-05-08T22:00:17.793Z,22.09
2023-05-08T22:02:44.151Z,22.02
2023-05-08T22:05:10.550Z,22.05
2023-05-08T22:07:36.928Z,22.06
2023-05-08T22:10:03.953Z,22.09
2023-05-08T22:12:30.383Z,22.09
2023-05-08T22:14:56.705Z,22.10
2023-05-08T22:17:23.047Z,22.10
2023-05-08T22:19:49.401Z,22.10
2023-05-08T22:22:15.717Z,22.10
2023-05-08T22:24:42.055Z,22.10
2023-05-08T22:27:08.363Z,22.14
2023-05-08T22:29:34.698Z,22.13
2023-05-08T22:32:01.138Z,22.12
2023-05-08T22:34:27.497Z,22.15
2023-05-08T22:36:53.819Z,22.14
2023-05-08T22:39:20.128Z,22.14
2023-05-08T22:41:46.596Z,22.14
2023-05-08T22:44:12.964Z,22.14
2023-05-08T22:46:39.411Z,22.14
2023-05-08T22:49:06.027Z,22.13
2023-05-08T22:51:32.640Z,22.13
2023-05-08T22:53:58.976Z,22.13
2023-05-08T22:56:25.601Z,22.07
2023-05-08T22:58:54.548Z,22.04
2023-05-08T23:01:21.540Z,22.04
2023-05-08T23:03:47.993Z,22.02
2023-05-08T23:06:14.311Z,22.01
2023-05-08T23:08:40.625Z,22.00
2023-05-08T23:11:06.937Z,22.02
2023-05-08T23:13:33.244Z,22.02
2023-05-08T23:15:59.578Z,22.05
2023-05-08T23:18:25.950Z,22.01
2023-05-08T23:20:52.282Z,22.01
2023-05-08T23:23:18.594Z,22.00
2023-05-08T23:25:44.908Z,22.00
2023-05-08T23:28:11.235Z,21.99
2023-05-08T23:30:37.616Z,21.99
2023-05-08T23:33:04.350Z,21.79
2023-05-08T23:35:30.726Z,21.65
2023-05-08T23:37:57.057Z,21.69
2023-05-08T23:40:23.378Z,21.77
2023-05-08T23:42:49.708Z,21.85
2023-05-08T23:45:16.446Z,21.87
2023-05-08T23:47:43.198Z,21.87
2023-05-08T23:50:09.781Z,21.88
2023-05-08T23:52:36.106Z,21.88
2023-05-08T23:55:02.433Z,21.87
2023-05-08T23:57:28.756Z,21.85
2023-05-08T23:59:55.076Z,21.82
